createdAt,value
2019-05-30T00:00:27.503Z,0.00
2019-05-30T00:01:25.978Z,0.00
2019-05-30T00:02:28.036Z,0.00
2019-05-30T00:03:28.015Z,0.00
2019-05-30T00:04:28.474Z,0.00
2019-05-30T00:05:34.481Z,0.00
2019-05-30T00:06:28.481Z,0.00
2019-05-30T00:07:27.052Z,0.00
2019-05-30T00:08:29.282Z,0.00
2019-05-30T00:09:28.369Z,0.00
2019-05-30T00:10:27.576Z,0.00
2019-05-30T00:11:28.827Z,0.00
2019-05-30T00:12:27.902Z,0.00
2019-05-30T00:13:30.041Z,0.00
2019-05-30T00:14:28.248Z,0.00
2019-05-30T00:15:31.975Z,0.00
2019-05-30T00:16:30.495Z,0.00
2019-05-30T00:17:28.811Z,0.00
2019-05-30T00:18:29.067Z,0.00
2019-05-30T00:19:34.999Z,0.00
2019-05-30T00:20:29.313Z,0.00
2019-05-30T00:21:29.524Z,0.00
2019-05-30T00:22:37.491Z,0.00
2019-05-30T00:23:30.945Z,0.00
2019-05-30T00:24:33.975Z,0.00
2019-05-30T00:25:33.978Z,0.00
2019-05-30T00:26:31.452Z,0.00
2019-05-30T00:27:32.482Z,0.00
2019-05-30T00:28:30.826Z,0.00
2019-05-30T00:29:30.926Z,0.00
2019-05-30T00:30:32.981Z,0.00
2019-05-30T00:31:31.298Z,0.00
2019-05-30T00:32:31.511Z,0.00
2019-05-30T00:33:32.668Z,0.00
2019-05-30T00:34:31.885Z,0.00
2019-05-30T00:35:32.102Z,0.00
2019-05-30T00:36:34.022Z,0.00
2019-05-30T00:37:32.521Z,0.00
2019-05-30T00:38:34.477Z,0.00
2019-05-30T00:39:32.803Z,0.00
2019-05-30T00:40:36.002Z,0.00
2019-05-30T00:41:34.996Z,0.00
2019-05-30T00:42:33.322Z,0.00
2019-05-30T00:43:33.535Z,0.00
2019-05-30T00:44:33.748Z,0.00
2019-05-30T00:45:35.483Z,0.00
2019-05-30T00:46:35.998Z,0.00
2019-05-30T00:47:35.975Z,0.00
2019-05-30T00:48:36.019Z,0.00
2019-05-30T00:49:36.481Z,0.00
2019-05-30T00:50:34.848Z,0.00
2019-05-30T00:51:34.922Z,0.00
2019-05-30T00:52:36.157Z,0.00
2019-05-30T00:53:35.245Z,0.00
2019-05-30T00:54:37.010Z,0.00
2019-05-30T00:55:37.514Z,0.00
2019-05-30T00:56:37.481Z,0.00
2019-05-30T00:57:39.476Z,0.00
2019-05-30T00:58:37.973Z,0.00
2019-05-30T00:59:36.169Z,0.00
2019-05-30T01:00:43.643Z,0.00
2019-05-30T01:01:38.483Z,0.00
2019-05-30T01:02:36.811Z,0.00
2019-05-30T01:03:37.106Z,0.00
2019-05-30T01:04:37.349Z,0.00
2019-05-30T01:05:39.042Z,0.00
2019-05-30T01:06:41.537Z,0.00
2019-05-30T01:07:39.486Z,0.00
2019-05-30T01:08:41.998Z,0.00
2019-05-30T01:09:42.984Z,0.00
2019-05-30T01:10:38.321Z,0.00
2019-05-30T01:11:38.527Z,0.00
2019-05-30T01:12:40.509Z,0.00
2019-05-30T01:13:38.962Z,0.00
2019-05-30T01:14:40.999Z,0.00
2019-05-30T01:15:39.343Z,0.00
2019-05-30T01:16:42.559Z,0.00
2019-05-30T01:17:39.696Z,0.00
2019-05-30T01:18:42.516Z,0.00
2019-05-30T01:19:40.099Z,0.00
2019-05-30T01:20:41.978Z,0.00
2019-05-30T01:21:41.994Z,0.00
2019-05-30T01:22:42.490Z,0.00
2019-05-30T01:23:42.476Z,0.00
2019-05-30T01:24:40.807Z,0.00
2019-05-30T01:25:43.023Z,0.00
2019-05-30T01:26:42.985Z,0.00
2019-05-30T01:27:41.303Z,0.00
2019-05-30T01:28:43.484Z,0.00
2019-05-30T01:29:42.673Z,0.00
2019-05-30T01:30:56.835Z,0.00
2019-05-30T01:31:44.000Z,0.00
2019-05-30T01:32:49.027Z,0.00
2019-05-30T01:33:43.981Z,0.00
2019-05-30T01:34:42.443Z,0.00
2019-05-30T01:35:42.639Z,0.00
2019-05-30T01:36:42.872Z,0.00
2019-05-30T01:37:50.483Z,0.00
2019-05-30T01:38:43.175Z,0.00
2019-05-30T01:39:44.387Z,0.00
2019-05-30T01:40:47.474Z,0.00
2019-05-30T01:41:43.805Z,0.00
2019-05-30T01:42:44.007Z,0.00
2019-05-30T01:43:45.217Z,0.00
2019-05-30T01:44:44.439Z,0.00
2019-05-30T01:45:44.671Z,0.00
2019-05-30T01:46:48.504Z,0.00
2019-05-30T01:47:58.172Z,0.00
2019-05-30T01:48:46.994Z,0.00
2019-05-30T01:49:45.340Z,0.00
2019-05-30T01:50:47.505Z,0.00
2019-05-30T01:51:45.775Z,0.00
2019-05-30T01:52:47.481Z,0.00
2019-05-30T01:53:46.098Z,0.00
2019-05-30T01:54:46.267Z,0.00
2019-05-30T01:55:48.770Z,0.00
2019-05-30T01:56:46.752Z,0.00
2019-05-30T01:57:46.882Z,0.00
2019-05-30T01:58:48.099Z,0.00
2019-05-30T01:59:48.991Z,0.00
2019-05-30T02:00:47.448Z,0.00
2019-05-30T02:01:49.493Z,0.00
2019-05-30T02:02:47.870Z,0.00
2019-05-30T02:03:49.991Z,0.00
2019-05-30T02:04:48.224Z,0.00
2019-05-30T02:05:50.008Z,0.00
2019-05-30T02:06:52.504Z,0.00
2019-05-30T02:07:48.715Z,0.00
2019-05-30T02:08:50.516Z,0.00
2019-05-30T02:09:49.084Z,0.00
2019-05-30T02:10:49.279Z,0.00
2019-05-30T02:11:49.501Z,0.00
2019-05-30T02:12:49.700Z,0.00
2019-05-30T02:13:53.507Z,0.00
2019-05-30T02:14:50.081Z,0.00
2019-05-30T02:15:51.997Z,0.00
2019-05-30T02:16:50.319Z,0.00
2019-05-30T02:17:50.531Z,0.00
2019-05-30T02:18:52.480Z,0.00
2019-05-30T02:19:54.511Z,0.00
2019-05-30T02:20:51.118Z,0.00
2019-05-30T02:21:51.315Z,0.00
2019-05-30T02:22:51.520Z,0.00
2019-05-30T02:23:53.146Z,0.00
2019-05-30T02:24:53.545Z,0.00
2019-05-30T02:25:58.035Z,0.00
2019-05-30T02:26:54.703Z,0.00
2019-05-30T02:27:52.440Z,0.00
2019-05-30T02:28:54.494Z,0.00
2019-05-30T02:29:53.730Z,0.00
2019-05-30T02:30:52.789Z,0.00
2019-05-30T02:31:54.987Z,0.00
2019-05-30T02:32:55.131Z,0.00
2019-05-30T02:33:53.325Z,0.00
2019-05-30T02:34:55.011Z,0.00
2019-05-30T02:35:53.600Z,0.00
2019-05-30T02:36:53.801Z,0.00
2019-05-30T02:37:55.981Z,0.00
2019-05-30T02:38:55.995Z,0.00
2019-05-30T02:40:00.234Z,0.00
2019-05-30T02:40:54.450Z,0.00
2019-05-30T02:41:56.481Z,0.00
2019-05-30T02:42:56.486Z,0.00
2019-05-30T02:43:56.495Z,0.00
2019-05-30T02:44:56.074Z,0.00
2019-05-30T02:45:55.289Z,0.00
2019-05-30T02:46:56.516Z,0.00
2019-05-30T02:47:56.725Z,0.00
2019-05-30T02:49:00.405Z,0.00
2019-05-30T02:49:56.077Z,0.00
2019-05-30T02:50:57.988Z,0.00
2019-05-30T02:51:56.365Z,0.00
2019-05-30T02:53:13.268Z,0.00
2019-05-30T02:54:01.543Z,0.00
2019-05-30T02:54:56.801Z,0.00
2019-05-30T02:55:57.016Z,0.00
2019-05-30T02:56:57.221Z,0.00
2019-05-30T02:57:57.464Z,0.00
2019-05-30T02:58:57.636Z,0.00
2019-05-30T02:59:59.509Z,0.00
2019-05-30T03:00:59.498Z,0.00
2019-05-30T03:02:04.380Z,0.00
2019-05-30T03:03:08.690Z,5.63
2019-05-30T03:04:03.911Z,5.63
2019-05-30T03:04:58.681Z,5.63
2019-05-30T03:05:58.883Z,5.63
2019-05-30T03:07:04.089Z,5.63
2019-05-30T03:08:04.466Z,5.63
2019-05-30T03:09:01.906Z,11.25
2019-05-30T03:10:04.427Z,11.25
2019-05-30T03:11:02.428Z,11.25
2019-05-30T03:12:04.073Z,11.25
2019-05-30T03:13:01.738Z,11.25
2019-05-30T03:14:02.653Z,16.88
2019-05-30T03:15:02.578Z,16.88
2019-05-30T03:16:02.188Z,16.88
2019-05-30T03:17:02.580Z,16.88
2019-05-30T03:18:04.468Z,22.50
2019-05-30T03:19:03.724Z,22.50
2019-05-30T03:20:04.942Z,22.50
2019-05-30T03:21:05.446Z,28.13
2019-05-30T03:22:03.379Z,28.13
2019-05-30T03:23:05.772Z,33.75
2019-05-30T03:24:05.061Z,33.75
2019-05-30T03:25:03.525Z,33.75
2019-05-30T03:26:04.754Z,39.38
2019-05-30T03:27:04.800Z,39.38
2019-05-30T03:28:11.827Z,45.00
2019-05-30T03:29:05.060Z,45.00
2019-05-30T03:30:15.834Z,50.63
2019-05-30T03:31:10.438Z,50.63
2019-05-30T03:32:38.922Z,50.63
2019-05-30T03:33:16.417Z,56.25
2019-05-30T03:34:13.628Z,56.25
2019-05-30T03:35:11.046Z,61.88
2019-05-30T03:36:17.952Z,61.88
2019-05-30T03:37:08.675Z,67.50
2019-05-30T03:38:08.124Z,67.50
2019-05-30T03:39:07.676Z,73.13
2019-05-30T03:40:06.988Z,78.75
2019-05-30T03:41:09.111Z,78.75
2019-05-30T03:42:07.046Z,84.38
2019-05-30T03:43:06.086Z,84.38
2019-05-30T03:44:10.781Z,90.00
2019-05-30T03:45:10.727Z,95.63
2019-05-30T03:46:08.736Z,101.25
2019-05-30T03:47:08.717Z,101.25
2019-05-30T03:48:07.397Z,106.88
2019-05-30T03:49:08.685Z,106.88
2019-05-30T03:50:09.781Z,112.50
2019-05-30T03:51:08.879Z,112.50
2019-05-30T03:52:09.745Z,112.50
2019-05-30T03:53:09.906Z,118.13
2019-05-30T03:54:11.601Z,118.13
2019-05-30T03:55:09.956Z,118.13
2019-05-30T03:56:09.362Z,118.13
2019-05-30T03:57:11.395Z,123.75
2019-05-30T03:58:10.668Z,123.75
2019-05-30T03:59:10.795Z,129.38
2019-05-30T04:00:11.839Z,129.38
2019-05-30T04:01:09.983Z,129.38
2019-05-30T04:02:11.750Z,135.00
2019-05-30T04:03:10.934Z,140.63
2019-05-30T04:04:11.601Z,146.25
2019-05-30T04:05:11.271Z,146.25
2019-05-30T04:06:10.272Z,151.88
2019-05-30T04:07:11.969Z,157.50
2019-05-30T04:08:13.689Z,157.50
2019-05-30T04:09:11.880Z,163.13
2019-05-30T04:10:11.425Z,168.75
2019-05-30T04:11:16.603Z,168.75
2019-05-30T04:12:12.724Z,174.38
2019-05-30T04:13:15.252Z,174.38
2019-05-30T04:14:13.104Z,180.00
2019-05-30T04:15:14.420Z,180.00
2019-05-30T04:16:14.117Z,185.63
2019-05-30T04:17:13.585Z,191.25
2019-05-30T04:18:12.542Z,196.88
2019-05-30T04:19:15.494Z,202.50
2019-05-30T04:20:14.302Z,202.50
2019-05-30T04:21:18.704Z,202.50
2019-05-30T04:22:16.481Z,208.13
2019-05-30T04:23:14.677Z,208.13
2019-05-30T04:24:17.035Z,213.75
2019-05-30T04:25:14.408Z,219.38
2019-05-30T04:26:18.151Z,219.38
2019-05-30T04:27:13.899Z,225.00
2019-05-30T04:28:14.133Z,225.00
2019-05-30T04:29:16.643Z,225.00
2019-05-30T04:30:14.497Z,230.63
2019-05-30T04:31:14.588Z,230.63
2019-05-30T04:32:26.192Z,236.25
2019-05-30T04:33:26.982Z,241.88
2019-05-30T04:34:15.333Z,241.88
2019-05-30T04:35:16.626Z,247.50
2019-05-30T04:36:16.846Z,253.13
2019-05-30T04:37:17.013Z,258.75
2019-05-30T04:38:17.201Z,258.75
2019-05-30T04:39:17.199Z,264.38
2019-05-30T04:40:17.681Z,270.00
2019-05-30T04:41:18.719Z,281.25
2019-05-30T04:42:18.143Z,286.88
2019-05-30T04:43:18.020Z,281.25
2019-05-30T04:44:20.171Z,286.88
2019-05-30T04:45:20.234Z,292.50
2019-05-30T04:46:19.088Z,298.13
2019-05-30T04:47:18.508Z,298.13
2019-05-30T04:48:21.321Z,303.75
2019-05-30T04:49:21.521Z,309.38
2019-05-30T04:50:18.820Z,309.38
2019-05-30T04:51:21.709Z,315.00
2019-05-30T04:52:22.666Z,315.00
2019-05-30T04:53:18.597Z,320.63
2019-05-30T04:54:22.486Z,326.25
2019-05-30T04:55:21.051Z,331.88
2019-05-30T04:56:19.768Z,331.88
2019-05-30T04:57:25.188Z,337.50
2019-05-30T04:58:23.308Z,343.13
2019-05-30T04:59:20.320Z,348.75
2019-05-30T05:00:21.297Z,348.75
2019-05-30T05:01:21.977Z,354.38
2019-05-30T05:02:21.201Z,360.00
2019-05-30T05:03:43.415Z,360.00
2019-05-30T05:04:21.646Z,365.63
2019-05-30T05:05:26.520Z,365.63
2019-05-30T05:06:21.972Z,371.25
2019-05-30T05:07:24.024Z,376.88
2019-05-30T05:08:22.124Z,376.88
2019-05-30T05:09:25.484Z,388.13
2019-05-30T05:10:22.532Z,410.63
2019-05-30T05:11:25.076Z,427.50
2019-05-30T05:12:22.466Z,444.38
2019-05-30T05:13:23.983Z,444.38
2019-05-30T05:14:23.981Z,455.63
2019-05-30T05:15:22.854Z,461.25
2019-05-30T05:16:33.897Z,466.88
2019-05-30T05:17:23.173Z,461.25
2019-05-30T05:18:23.531Z,472.50
2019-05-30T05:19:26.218Z,483.75
2019-05-30T05:20:23.642Z,506.25
2019-05-30T05:21:23.782Z,534.38
2019-05-30T05:22:27.486Z,556.88
2019-05-30T05:23:24.205Z,579.38
2019-05-30T05:24:24.417Z,607.50
2019-05-30T05:25:24.675Z,624.38
2019-05-30T05:26:26.484Z,641.25
2019-05-30T05:27:24.931Z,658.13
2019-05-30T05:28:25.140Z,669.38
2019-05-30T05:29:25.369Z,680.63
2019-05-30T05:30:25.594Z,691.88
2019-05-30T05:31:25.762Z,708.75
2019-05-30T05:32:25.971Z,725.63
2019-05-30T05:33:27.983Z,742.50
2019-05-30T05:34:26.306Z,765.00
2019-05-30T05:35:26.522Z,781.88
2019-05-30T05:36:26.740Z,804.38
2019-05-30T05:37:27.382Z,810.00
2019-05-30T05:38:28.406Z,815.63
2019-05-30T05:39:28.364Z,843.75
2019-05-30T05:40:29.485Z,883.13
2019-05-30T05:41:28.618Z,871.88
2019-05-30T05:42:30.299Z,815.63
2019-05-30T05:43:28.702Z,798.75
2019-05-30T05:44:28.714Z,843.75
2019-05-30T05:45:28.811Z,871.88
2019-05-30T05:46:30.487Z,922.50
2019-05-30T05:47:28.963Z,950.63
2019-05-30T05:48:29.155Z,990.00
2019-05-30T05:49:29.375Z,1018.13
2019-05-30T05:50:29.578Z,1023.75
2019-05-30T05:51:29.872Z,1006.88
2019-05-30T05:52:29.950Z,1023.75
2019-05-30T05:53:30.163Z,1035.00
2019-05-30T05:54:30.387Z,1046.25
2019-05-30T05:55:30.595Z,1057.50
2019-05-30T05:56:30.804Z,1063.13
2019-05-30T05:57:31.007Z,1074.38
2019-05-30T05:58:31.228Z,1130.63
2019-05-30T05:59:31.460Z,1170.00
2019-05-30T06:00:31.659Z,1192.50
2019-05-30T06:01:31.873Z,1226.25
2019-05-30T06:02:34.012Z,1254.38
2019-05-30T06:03:35.031Z,1271.25
2019-05-30T06:04:32.378Z,1293.75
2019-05-30T06:05:34.540Z,1305.00
2019-05-30T06:06:36.521Z,1333.13
2019-05-30T06:07:32.976Z,1344.38
2019-05-30T06:08:33.197Z,1372.50
2019-05-30T06:09:33.474Z,1395.00
2019-05-30T06:10:33.529Z,1417.50
2019-05-30T06:11:41.517Z,1440.00
2019-05-30T06:12:37.486Z,1462.50
2019-05-30T06:13:34.062Z,1485.00
2019-05-30T06:14:34.276Z,1496.25
2019-05-30T06:15:34.490Z,1524.38
2019-05-30T06:16:34.694Z,1535.63
2019-05-30T06:17:34.961Z,1541.25
2019-05-30T06:18:40.057Z,1580.63
2019-05-30T06:19:45.908Z,1608.75
2019-05-30T06:20:35.553Z,1642.50
2019-05-30T06:21:51.064Z,1670.63
2019-05-30T06:23:00.711Z,1710.00
2019-05-30T06:23:37.021Z,1732.50
2019-05-30T06:24:36.251Z,1755.00
2019-05-30T06:25:36.486Z,1777.50
2019-05-30T06:26:38.516Z,1805.63
2019-05-30T06:27:36.762Z,1811.25
2019-05-30T06:28:38.565Z,1822.50
2019-05-30T06:29:39.015Z,1816.88
2019-05-30T06:30:39.442Z,1828.13
2019-05-30T06:31:59.575Z,1816.88
2019-05-30T06:33:02.566Z,1845.00
2019-05-30T06:33:37.900Z,1867.50
2019-05-30T06:34:39.547Z,1901.25
2019-05-30T06:35:42.203Z,1895.63
2019-05-30T06:39:49.839Z,1935.00
2019-05-30T06:42:17.598Z,1968.75
2019-05-30T06:43:17.072Z,2013.75
2019-05-30T06:44:17.043Z,2047.50
2019-05-30T06:45:17.542Z,2053.13
2019-05-30T06:46:22.116Z,2064.38
2019-05-30T06:47:17.620Z,2075.63
2019-05-30T06:48:18.203Z,2086.88
2019-05-30T06:49:18.158Z,2171.25
2019-05-30T06:50:18.125Z,2216.25
2019-05-30T06:51:18.596Z,2216.25
2019-05-30T06:52:17.020Z,2210.63
2019-05-30T06:53:18.164Z,2221.88
2019-05-30T06:54:18.516Z,2210.63
2019-05-30T06:55:19.118Z,2193.75
2019-05-30T06:56:21.571Z,2210.63
2019-05-30T06:57:19.625Z,2193.75
2019-05-30T06:58:19.068Z,2227.50
2019-05-30T06:59:41.967Z,2278.13
2019-05-30T07:00:20.088Z,2306.25
2019-05-30T07:01:21.836Z,2334.38
2019-05-30T07:02:18.955Z,2396.25
2019-05-30T07:03:19.071Z,2441.25
2019-05-30T07:04:19.557Z,2452.50
2019-05-30T07:05:23.054Z,2452.50
2019-05-30T07:06:20.137Z,2452.50
2019-05-30T07:07:25.036Z,2452.50
2019-05-30T07:08:21.058Z,2418.75
2019-05-30T07:09:20.217Z,2396.25
2019-05-30T07:10:22.605Z,2373.75
2019-05-30T07:11:24.709Z,2328.75
2019-05-30T07:12:22.808Z,2396.25
2019-05-30T07:13:23.267Z,2430.00
2019-05-30T07:14:25.276Z,2491.88
2019-05-30T07:15:21.199Z,2649.38
2019-05-30T07:16:23.582Z,2778.75
2019-05-30T07:17:25.254Z,2638.13
2019-05-30T07:18:21.634Z,1918.13
2019-05-30T07:19:23.578Z,2278.13
2019-05-30T07:20:23.593Z,2317.50
2019-05-30T07:21:23.483Z,2525.63
2019-05-30T07:22:23.473Z,1811.25
2019-05-30T07:23:25.757Z,1918.13
2019-05-30T07:24:25.615Z,2666.25
2019-05-30T07:25:38.625Z,1951.88
2019-05-30T07:26:26.013Z,2761.88
2019-05-30T07:27:26.044Z,2300.63
2019-05-30T07:28:25.732Z,2891.25
2019-05-30T07:29:28.015Z,2812.50
2019-05-30T07:30:25.872Z,2115.00
2019-05-30T07:31:24.204Z,2379.38
2019-05-30T07:32:24.281Z,3020.63
2019-05-30T07:33:45.573Z,2210.63
2019-05-30T07:34:48.619Z,2593.13
2019-05-30T07:35:27.964Z,2823.75
2019-05-30T07:36:28.523Z,2981.25
2019-05-30T07:37:30.196Z,2553.75
2019-05-30T07:38:27.074Z,2998.13
2019-05-30T07:39:41.845Z,2885.63
2019-05-30T07:40:28.695Z,2891.25
2019-05-30T07:41:26.859Z,2908.13
2019-05-30T07:42:26.563Z,2829.38
2019-05-30T07:43:29.939Z,2930.63
2019-05-30T07:44:29.081Z,2919.38
2019-05-30T07:45:26.841Z,2981.25
2019-05-30T07:46:27.026Z,3003.75
2019-05-30T07:47:28.248Z,3026.25
2019-05-30T07:48:30.086Z,3048.75
2019-05-30T07:49:30.408Z,3048.75
2019-05-30T07:50:30.464Z,3065.63
2019-05-30T07:51:28.496Z,3065.63
2019-05-30T07:52:32.623Z,3099.38
2019-05-30T07:53:31.019Z,3116.25
2019-05-30T07:54:33.532Z,3121.88
2019-05-30T07:55:31.018Z,3150.00
2019-05-30T07:56:31.017Z,3082.50
2019-05-30T07:57:29.986Z,2947.50
2019-05-30T07:58:33.449Z,3195.00
2019-05-30T07:59:30.326Z,3144.38
2019-05-30T08:00:31.418Z,3071.25
2019-05-30T08:01:32.561Z,3150.00
2019-05-30T08:02:33.676Z,3183.75
2019-05-30T08:03:34.701Z,3206.25
2019-05-30T08:04:32.573Z,3234.38
2019-05-30T08:05:32.655Z,3223.13
2019-05-30T08:06:32.101Z,3245.63
2019-05-30T08:07:36.671Z,3234.38
2019-05-30T08:08:32.477Z,3234.38
2019-05-30T08:09:31.314Z,3262.50
2019-05-30T08:10:38.173Z,3262.50
2019-05-30T08:11:31.549Z,3285.00
2019-05-30T08:12:34.125Z,3279.38
2019-05-30T08:13:35.260Z,3330.00
2019-05-30T08:14:33.568Z,3290.63
2019-05-30T08:15:33.476Z,3307.50
2019-05-30T08:16:35.373Z,3290.63
2019-05-30T08:17:33.691Z,3285.00
2019-05-30T08:18:35.753Z,3217.50
2019-05-30T08:19:34.305Z,3358.13
2019-05-30T08:20:34.314Z,3459.38
2019-05-30T08:21:38.072Z,3510.00
2019-05-30T08:22:36.171Z,2030.63
2019-05-30T08:23:34.231Z,1310.63
2019-05-30T08:24:49.568Z,3431.25
2019-05-30T08:25:38.496Z,3251.25
2019-05-30T08:26:36.408Z,3566.25
2019-05-30T08:27:36.403Z,3223.13
2019-05-30T08:28:34.670Z,3633.75
2019-05-30T08:29:34.895Z,3678.75
2019-05-30T08:30:37.094Z,3723.75
2019-05-30T08:31:36.885Z,3577.50
2019-05-30T08:32:43.024Z,3706.88
2019-05-30T08:33:37.639Z,3813.75
2019-05-30T08:34:37.133Z,1248.75
2019-05-30T08:35:46.903Z,3200.63
2019-05-30T08:36:40.072Z,2756.25
2019-05-30T08:37:37.323Z,3875.63
2019-05-30T08:38:39.534Z,1113.75
2019-05-30T08:39:37.393Z,1018.13
2019-05-30T08:40:39.574Z,3903.75
2019-05-30T08:41:39.538Z,3543.75
2019-05-30T08:42:40.268Z,1411.88
2019-05-30T08:43:39.771Z,3864.38
2019-05-30T08:44:40.148Z,1569.38
2019-05-30T08:45:41.593Z,3678.75
2019-05-30T08:46:38.094Z,3813.75
2019-05-30T08:47:40.628Z,3740.63
2019-05-30T08:48:40.651Z,3796.88
2019-05-30T08:49:45.071Z,3796.88
2019-05-30T08:50:44.751Z,3830.63
2019-05-30T08:51:40.493Z,3853.13
2019-05-30T08:52:41.197Z,3886.88
2019-05-30T08:53:40.678Z,3706.88
2019-05-30T08:54:41.579Z,3780.00
2019-05-30T08:55:41.593Z,3605.63
2019-05-30T08:56:40.677Z,1985.63
2019-05-30T08:57:42.147Z,3684.38
2019-05-30T08:58:44.144Z,3898.13
2019-05-30T08:59:44.699Z,4005.00
2019-05-30T09:00:42.868Z,2176.88
2019-05-30T09:01:56.683Z,3847.50
2019-05-30T09:02:41.184Z,3611.25
2019-05-30T09:03:44.147Z,1518.75
2019-05-30T09:04:43.979Z,1170.00
2019-05-30T09:05:58.156Z,1018.13
2019-05-30T09:06:44.591Z,1344.38
2019-05-30T09:07:44.490Z,3808.13
2019-05-30T09:08:58.128Z,2508.75
2019-05-30T09:09:49.610Z,3825.00
2019-05-30T09:10:46.845Z,3909.38
2019-05-30T09:11:48.118Z,1096.88
2019-05-30T09:12:49.479Z,1068.75
2019-05-30T09:13:44.682Z,3903.75
2019-05-30T09:14:46.844Z,3678.75
2019-05-30T09:15:46.968Z,1226.25
2019-05-30T09:16:46.583Z,3948.75
2019-05-30T09:17:44.809Z,1136.25
2019-05-30T09:18:47.294Z,1147.50
2019-05-30T09:19:51.594Z,3982.50
2019-05-30T09:20:47.434Z,1968.75
2019-05-30T09:21:47.484Z,1096.88
2019-05-30T09:22:45.595Z,1136.25
2019-05-30T09:23:46.207Z,4038.75
2019-05-30T09:24:47.948Z,1248.75
2019-05-30T09:25:49.412Z,1299.38
2019-05-30T09:26:50.309Z,4269.38
2019-05-30T09:27:48.365Z,3853.13
2019-05-30T09:28:48.285Z,1260.00
2019-05-30T09:29:50.126Z,1080.00
2019-05-30T09:30:49.608Z,978.75
2019-05-30T09:31:48.770Z,990.00
2019-05-30T09:32:50.045Z,1035.00
2019-05-30T09:33:49.059Z,995.63
2019-05-30T09:34:50.136Z,922.50
2019-05-30T09:35:49.108Z,956.25
2019-05-30T09:36:49.544Z,815.63
2019-05-30T09:37:50.079Z,849.38
2019-05-30T09:38:50.142Z,2947.50
2019-05-30T09:39:49.447Z,1243.13
2019-05-30T09:40:50.641Z,911.25
2019-05-30T09:41:52.602Z,950.63
2019-05-30T09:42:50.922Z,3633.75
2019-05-30T09:43:51.408Z,1456.88
2019-05-30T09:45:14.090Z,950.63
2019-05-30T09:45:51.646Z,1760.63
2019-05-30T09:46:51.292Z,2424.38
2019-05-30T09:47:52.557Z,883.13
2019-05-30T09:48:53.053Z,838.13
2019-05-30T09:49:52.136Z,714.38
2019-05-30T09:50:51.503Z,736.88
2019-05-30T09:51:55.629Z,849.38
2019-05-30T09:52:55.679Z,1366.88
2019-05-30T09:53:54.925Z,2053.13
2019-05-30T09:55:07.085Z,1912.50
2019-05-30T09:55:54.099Z,1873.13
2019-05-30T09:56:58.084Z,2002.50
2019-05-30T09:59:29.935Z,1321.88
2019-05-30T10:00:25.184Z,1209.38
2019-05-30T10:01:26.001Z,1091.25
2019-05-30T10:02:28.394Z,1209.38
2019-05-30T10:03:28.435Z,2199.38
2019-05-30T10:04:26.926Z,2520.00
2019-05-30T10:05:33.008Z,3110.63
2019-05-30T10:06:29.520Z,3881.25
2019-05-30T10:07:26.434Z,4055.63
2019-05-30T10:08:27.452Z,3954.38
2019-05-30T10:09:25.661Z,2491.88
2019-05-30T10:10:25.905Z,3009.38
2019-05-30T10:11:28.891Z,2081.25
2019-05-30T10:12:30.907Z,1968.75
2019-05-30T10:13:26.397Z,1996.88
2019-05-30T10:14:28.450Z,1996.88
2019-05-30T10:15:28.439Z,2452.50
2019-05-30T10:16:30.959Z,2587.50
2019-05-30T10:17:30.095Z,2126.25
2019-05-30T10:18:44.257Z,2508.75
2019-05-30T10:19:27.620Z,2025.00
2019-05-30T10:20:27.830Z,1710.00
2019-05-30T10:21:39.045Z,1642.50
2019-05-30T10:22:28.902Z,1783.13
2019-05-30T10:23:28.378Z,2677.50
2019-05-30T10:24:28.591Z,1929.38
2019-05-30T10:25:28.801Z,2413.13
2019-05-30T10:26:33.665Z,1631.25
2019-05-30T10:27:29.908Z,1586.25
2019-05-30T10:28:35.959Z,2030.63
2019-05-30T10:29:29.610Z,3369.38
2019-05-30T10:30:31.447Z,3009.38
2019-05-30T10:31:32.417Z,4218.75
2019-05-30T10:32:32.531Z,1681.88
2019-05-30T10:33:33.689Z,2373.75
2019-05-30T10:34:30.514Z,2638.13
2019-05-30T10:35:34.454Z,2953.13
2019-05-30T10:36:43.834Z,2103.75
2019-05-30T10:37:34.013Z,2165.63
2019-05-30T10:38:33.307Z,2345.63
2019-05-30T10:39:36.412Z,1985.63
2019-05-30T10:40:32.685Z,1946.25
2019-05-30T10:41:32.487Z,2193.75
2019-05-30T10:42:33.947Z,1890.00
2019-05-30T10:43:33.947Z,2008.13
2019-05-30T10:44:32.316Z,1996.88
2019-05-30T10:45:34.476Z,1985.63
2019-05-30T10:46:38.399Z,2047.50
2019-05-30T10:47:36.441Z,2160.00
2019-05-30T10:48:36.954Z,2216.25
2019-05-30T10:49:35.329Z,2143.13
2019-05-30T10:50:46.897Z,2244.38
2019-05-30T10:51:40.448Z,2008.13
2019-05-30T10:52:55.622Z,1631.25
2019-05-30T10:53:37.201Z,1625.63
2019-05-30T10:54:41.961Z,1378.13
2019-05-30T10:55:34.336Z,1344.38
2019-05-30T10:56:34.437Z,1338.75
2019-05-30T10:57:39.398Z,1366.88
2019-05-30T10:58:35.898Z,1411.88
2019-05-30T10:59:51.049Z,1479.38
2019-05-30T11:00:35.191Z,1513.13
2019-05-30T11:01:36.333Z,1631.25
2019-05-30T11:02:35.465Z,1794.38
2019-05-30T11:03:37.444Z,1963.13
2019-05-30T11:04:36.481Z,2311.88
2019-05-30T11:05:36.014Z,2300.63
2019-05-30T11:07:04.927Z,2345.63
2019-05-30T11:07:52.866Z,2323.13
2019-05-30T11:08:37.401Z,2295.00
2019-05-30T11:09:38.489Z,2255.63
2019-05-30T11:10:40.449Z,2278.13
2019-05-30T11:11:52.947Z,2182.50
2019-05-30T11:12:37.211Z,1929.38
2019-05-30T11:13:39.711Z,1659.38
2019-05-30T11:14:43.471Z,1563.75
2019-05-30T11:15:51.616Z,1490.63
2019-05-30T11:16:40.922Z,1456.88
2019-05-30T11:17:39.966Z,1456.88
2019-05-30T11:18:45.947Z,1501.88
2019-05-30T11:19:51.770Z,1575.00
2019-05-30T11:20:38.557Z,1777.50
2019-05-30T11:21:43.249Z,1670.63
2019-05-30T11:22:39.036Z,1642.50
2019-05-30T11:23:39.947Z,1501.88
2019-05-30T11:24:43.956Z,1451.25
2019-05-30T11:25:40.949Z,1456.88
2019-05-30T11:26:48.775Z,1591.88
2019-05-30T11:27:41.458Z,1749.38
2019-05-30T11:28:40.047Z,1822.50
2019-05-30T11:29:44.017Z,1822.50
2019-05-30T11:30:42.988Z,1822.50
2019-05-30T11:31:42.458Z,1732.50
2019-05-30T11:32:43.437Z,1631.25
2019-05-30T11:34:03.967Z,1620.00
2019-05-30T11:35:03.993Z,1575.00
2019-05-30T11:37:18.305Z,1575.00
2019-05-30T11:37:43.505Z,1636.88
2019-05-30T11:38:41.971Z,1586.25
2019-05-30T11:39:43.181Z,1546.88
2019-05-30T11:41:05.017Z,1535.63
2019-05-30T11:41:42.605Z,1524.38
2019-05-30T11:42:44.481Z,1513.13
2019-05-30T11:43:59.671Z,1535.63
2019-05-30T11:44:51.421Z,1530.00
2019-05-30T11:45:45.330Z,1501.88
2019-05-30T11:46:43.639Z,1456.88
2019-05-30T11:47:46.952Z,1417.50
2019-05-30T11:48:43.952Z,1383.75
2019-05-30T11:49:44.181Z,1350.00
2019-05-30T11:50:46.012Z,1310.63
2019-05-30T11:51:45.644Z,1265.63
2019-05-30T11:52:53.685Z,1215.00
2019-05-30T11:53:45.017Z,1164.38
2019-05-30T11:54:49.851Z,1125.00
2019-05-30T11:55:47.463Z,1096.88
2019-05-30T11:56:47.723Z,1085.63
2019-05-30T11:57:47.454Z,1068.75
2019-05-30T11:58:47.954Z,1057.50
2019-05-30T11:59:50.327Z,1057.50
2019-05-30T12:00:47.969Z,1063.13
2019-05-30T12:01:50.501Z,1063.13
2019-05-30T12:02:46.748Z,1068.75
2019-05-30T12:03:54.529Z,1068.75
2019-05-30T12:06:19.227Z,1057.50
2019-05-30T12:07:36.259Z,1040.63
2019-05-30T12:08:26.231Z,1018.13
2019-05-30T12:09:19.588Z,995.63
2019-05-30T12:10:21.217Z,984.38
2019-05-30T12:11:32.726Z,978.75
2019-05-30T12:12:23.839Z,978.75
2019-05-30T12:13:24.217Z,984.38
2019-05-30T12:14:25.240Z,990.00
2019-05-30T12:15:22.665Z,1006.88
2019-05-30T12:16:22.715Z,1029.38
2019-05-30T12:17:22.755Z,1029.38
2019-05-30T12:18:58.216Z,1018.13
2019-05-30T12:19:21.445Z,1012.50
2019-05-30T12:20:23.222Z,1001.25
2019-05-30T12:21:22.468Z,995.63
2019-05-30T12:22:23.054Z,990.00
2019-05-30T12:23:23.168Z,995.63
2019-05-30T12:24:44.343Z,978.75
2019-05-30T12:25:24.247Z,990.00
2019-05-30T12:26:34.626Z,978.75
2019-05-30T12:27:22.906Z,973.13
2019-05-30T12:28:22.950Z,978.75
2019-05-30T12:29:26.685Z,978.75
2019-05-30T12:30:55.778Z,967.50
2019-05-30T12:31:31.285Z,956.25
2019-05-30T12:32:25.266Z,950.63
2019-05-30T12:33:24.843Z,956.25
2019-05-30T12:34:24.145Z,973.13
2019-05-30T12:35:25.750Z,990.00
2019-05-30T12:36:26.218Z,1001.25
2019-05-30T12:37:50.255Z,1023.75
2019-05-30T12:38:32.668Z,1063.13
2019-05-30T12:40:58.839Z,1243.13
2019-05-30T12:41:59.038Z,1316.25